Time;durP1;ratioP1;P1;durP2;ratioP2;P2;SDS_P1;SDS_P2;PMS_P1;PMS_P2;Temp;Humidity;BMP_temperature;BMP_pressure;BME280_temperature;BME280_humidity;BME280_pressure;Samples;Min_cycle;Max_cycle;Signal;HPM_P1;HPM_P2
2021/08/10 00:01:04;;;;;;;3.70;2.85;;;17.10;88.40;;;;;;5124425;22;20208;-82
2021/08/10 00:03:30;;;;;;;5.33;3.17;;;17.10;88.80;;;;;;5056142;28;20613;-82
2021/08/10 00:05:56;;;;;;;4.97;3.03;;;17.00;89.10;;;;;;5043826;28;21018;-82
2021/08/10 00:08:23;;;;;;;8.53;2.70;;;17.00;89.20;;;;;;5043846;28;20205;-82
2021/08/10 00:10:50;;;;;;;6.97;3.10;;;17.00;89.40;;;;;;5044167;28;20949;-82
2021/08/10 00:13:19;;;;;;;12.85;3.97;;;16.90;89.60;;;;;;5044026;28;20715;-82
2021/08/10 00:15:45;;;;;;;8.77;3.10;;;16.90;89.80;;;;;;5043674;28;20165;-82
2021/08/10 00:18:12;;;;;;;8.07;3.05;;;16.90;89.90;;;;;;5043488;28;20174;-82
2021/08/10 00:20:38;;;;;;;9.73;2.88;;;16.90;90.10;;;;;;5044971;28;20176;-81
2021/08/10 00:23:04;;;;;;;7.57;3.13;;;16.80;90.40;;;;;;5044790;28;20197;-82
2021/08/10 00:25:30;;;;;;;4.75;3.50;;;16.80;90.50;;;;;;5043874;28;20177;-82
2021/08/10 00:27:57;;;;;;;12.80;4.20;;;16.80;90.70;;;;;;5043224;28;20170;-82
2021/08/10 00:30:22;;;;;;;6.47;3.45;;;16.80;90.80;;;;;;5044370;28;20269;-82
2021/08/10 00:32:48;;;;;;;8.60;3.33;;;16.80;91.10;;;;;;5043764;28;20228;-81
2021/08/10 00:35:14;;;;;;;9.60;3.17;;;16.80;91.10;;;;;;5043730;28;20416;-81
2021/08/10 00:37:40;;;;;;;10.10;3.70;;;16.70;91.20;;;;;;5043946;28;20455;-82
2021/08/10 00:40:07;;;;;;;10.80;3.60;;;16.70;91.20;;;;;;5043410;28;20435;-82
2021/08/10 00:42:33;;;;;;;6.80;3.67;;;16.70;91.00;;;;;;5043857;28;20223;-82
2021/08/10 00:44:59;;;;;;;7.43;4.47;;;16.70;90.80;;;;;;5043375;28;20197;-83
2021/08/10 00:47:25;;;;;;;13.80;4.22;;;16.70;90.70;;;;;;5041964;28;20177;-82
2021/08/10 00:49:50;;;;;;;8.87;2.90;;;16.70;91.00;;;;;;5042299;28;20207;-82
2021/08/10 00:52:16;;;;;;;6.30;4.00;;;16.70;91.20;;;;;;5041912;28;20455;-82
2021/08/10 00:54:42;;;;;;;7.00;3.58;;;16.70;91.30;;;;;;5041789;28;20845;-81
2021/08/10 00:57:08;;;;;;;8.00;4.57;;;16.70;91.10;;;;;;5042157;28;20173;-82
2021/08/10 00:59:34;;;;;;;5.70;3.45;;;16.60;91.20;;;;;;5042057;28;20325;-82
2021/08/10 01:02:03;;;;;;;6.85;3.78;;;16.60;91.30;;;;;;5041443;28;20299;-81
2021/08/10 01:04:28;;;;;;;9.68;4.07;;;16.60;91.30;;;;;;5041139;28;20201;-82
2021/08/10 01:07:18;;;;;;;13.30;3.90;;;16.60;91.40;;;;;;5041747;28;20273;-82
2021/08/10 01:10:01;;;;;;;8.27;3.92;;;16.60;92.10;;;;;;5041773;28;20420;-82
2021/08/10 01:12:35;;;;;;;12.82;3.95;;;16.50;92.10;;;;;;5041721;28;20201;-81
2021/08/10 01:15:16;;;;;;;16.38;4.97;;;16.50;92.40;;;;;;5041430;28;20292;-82
2021/08/10 01:17:48;;;;;;;4.75;3.70;;;16.50;92.70;;;;;;5042008;28;20602;-82
2021/08/10 01:20:32;;;;;;;8.77;4.30;;;16.40;93.10;;;;;;5041650;28;20176;-81
2021/08/10 01:23:00;;;;;;;7.32;3.70;;;16.40;93.40;;;;;;5042270;28;20192;-82
2021/08/10 01:25:26;;;;;;;7.43;3.60;;;;;;;;;;5041917;28;20173;-82
2021/08/10 01:28:23;;;;;;;8.23;4.55;;;16.30;93.90;;;;;;5058896;28;20544;-82
2021/08/10 01:31:09;;;;;;;7.82;3.65;;;16.30;94.10;;;;;;5041595;28;20173;-82
2021/08/10 01:33:41;;;;;;;6.55;4.13;;;16.30;94.00;;;;;;5025273;28;20705;-82
2021/08/10 01:36:09;;;;;;;6.53;3.90;;;16.30;93.90;;;;;;5041123;28;20177;-83
2021/08/10 01:38:37;;;;;;;7.05;3.85;;;16.30;93.60;;;;;;5041539;28;20733;-82
2021/08/10 01:41:03;;;;;;;6.45;3.35;;;16.30;93.70;;;;;;5041093;28;20223;-82
2021/08/10 01:43:31;;;;;;;7.75;4.90;;;16.30;93.70;;;;;;5040235;28;20616;-82
2021/08/10 01:45:58;;;;;;;5.90;3.65;;;16.20;93.60;;;;;;5041013;28;20174;-82
2021/08/10 01:48:26;;;;;;;8.05;3.42;;;16.20;93.60;;;;;;5040845;28;20195;-82
2021/08/10 01:50:53;;;;;;;6.72;3.50;;;16.20;93.80;;;;;;5040550;28;20173;-81
2021/08/10 01:53:20;;;;;;;5.40;3.15;;;16.20;93.70;;;;;;5040394;28;20262;-82
2021/08/10 01:55:47;;;;;;;4.63;3.22;;;16.20;93.90;;;;;;5040192;28;20236;-82
2021/08/10 01:58:14;;;;;;;12.25;4.00;;;16.20;93.70;;;;;;5039704;28;20196;-82
2021/08/10 02:00:41;;;;;;;9.20;3.60;;;16.20;94.00;;;;;;5040070;28;20592;-82
2021/08/10 02:03:11;;;;;;;14.40;2.95;;;16.20;94.30;;;;;;5041029;28;20213;-83
2021/08/10 02:05:39;;;;;;;9.95;4.35;;;16.10;94.60;;;;;;5039921;28;20181;-82
2021/08/10 02:08:08;;;;;;;7.50;3.55;;;16.00;94.60;;;;;;5040506;28;20241;-82
2021/08/10 02:10:35;;;;;;;6.63;3.30;;;16.00;94.50;;;;;;5039765;28;20173;-82
2021/08/10 02:13:02;;;;;;;8.80;3.50;;;16.00;94.70;;;;;;5039697;28;20262;-82
2021/08/10 02:15:29;;;;;;;9.80;4.80;;;16.00;94.70;;;;;;5039688;28;20169;-83
2021/08/10 02:17:54;;;;;;;7.15;4.55;;;16.00;94.80;;;;;;5039050;28;20191;-82
2021/08/10 02:20:20;;;;;;;5.00;3.40;;;15.90;95.80;;;;;;5039970;28;20177;-82
2021/08/10 02:22:48;;;;;;;7.18;3.35;;;15.80;96.30;;;;;;5039492;28;20779;-82
2021/08/10 02:25:18;;;;;;;8.90;3.88;;;15.80;96.50;;;;;;5039068;28;20199;-83
2021/08/10 02:27:56;;;;;;;9.90;3.72;;;15.80;96.60;;;;;;5039099;28;20169;-82
2021/08/10 02:30:34;;;;;;;8.30;3.75;;;15.70;97.00;;;;;;5039313;28;20675;-82
2021/08/10 02:33:05;;;;;;;6.28;3.78;;;15.70;97.10;;;;;;5038211;28;20204;-82
2021/08/10 02:35:31;;;;;;;6.32;3.70;;;15.60;97.20;;;;;;5039313;28;20237;-82
2021/08/10 02:38:02;;;;;;;9.27;3.92;;;15.60;97.40;;;;;;5038462;28;20165;-82
2021/08/10 02:40:29;;;;;;;9.18;4.10;;;15.60;97.40;;;;;;5039012;28;20173;-82
2021/08/10 02:42:59;;;;;;;6.15;3.67;;;15.60;97.70;;;;;;5038460;28;20188;-82
2021/08/10 02:45:25;;;;;;;8.13;4.20;;;15.60;97.70;;;;;;5039308;28;20227;-82
2021/08/10 02:47:53;;;;;;;4.97;3.45;;;15.60;97.80;;;;;;5039155;28;20637;-82
2021/08/10 02:50:21;;;;;;;9.70;4.05;;;15.60;97.50;;;;;;5039128;28;20645;-82
2021/08/10 02:52:47;;;;;;;9.55;3.80;;;15.60;97.60;;;;;;5038304;28;20215;-82
2021/08/10 02:55:13;;;;;;;9.47;4.00;;;15.60;97.50;;;;;;5038755;28;20738;-82
2021/08/10 02:57:45;;;;;;;14.75;4.45;;;15.60;97.30;;;;;;5039434;28;20462;-82
2021/08/10 03:00:14;;;;;;;9.32;3.75;;;15.60;97.50;;;;;;5038446;28;20169;-82
2021/08/10 03:02:52;;;;;;;8.75;3.33;;;15.50;97.80;;;;;;5038469;28;20176;-82
2021/08/10 03:05:21;;;;;;;10.68;2.95;;;15.40;97.90;;;;;;5039046;28;20165;-82
2021/08/10 03:07:54;;;;;;;8.25;3.72;;;15.40;97.90;;;;;;5038372;28;20646;-82
2021/08/10 03:10:21;;;;;;;6.80;3.20;;;15.50;97.80;;;;;;5038469;28;20177;-82
2021/08/10 03:12:49;;;;;;;6.78;3.70;;;15.40;97.80;;;;;;5037960;28;20200;-82
2021/08/10 03:15:20;;;;;;;5.63;3.55;;;15.40;97.90;;;;;;5038773;28;20174;-82
2021/08/10 03:17:46;;;;;;;11.90;4.13;;;15.40;97.80;;;;;;5056392;28;20655;-82
2021/08/10 03:20:13;;;;;;;6.63;3.67;;;15.30;98.20;;;;;;5038623;28;20200;-82
2021/08/10 03:22:43;;;;;;;6.60;3.85;;;15.20;98.40;;;;;;5038007;28;20180;-82
2021/08/10 03:25:12;;;;;;;9.50;3.38;;;15.20;98.40;;;;;;5038573;28;20181;-82
2021/08/10 03:27:39;;;;;;;6.10;3.35;;;15.30;98.40;;;;;;5038782;28;20243;-82
2021/08/10 03:30:06;;;;;;;7.22;4.00;;;15.20;98.40;;;;;;5039172;28;20174;-82
2021/08/10 03:32:33;;;;;;;7.40;3.60;;;15.20;98.30;;;;;;5038422;28;20254;-82
2021/08/10 03:34:59;;;;;;;7.28;4.20;;;15.20;98.40;;;;;;5039011;28;20242;-81
2021/08/10 03:37:26;;;;;;;13.55;4.28;;;15.20;98.50;;;;;;5040154;28;20173;-82
2021/08/10 03:39:54;;;;;;;7.32;4.20;;;15.10;98.80;;;;;;5039651;28;20169;-82
2021/08/10 03:42:20;;;;;;;9.23;4.53;;;15.10;99.00;;;;;;5039661;28;20170;-82
2021/08/10 03:44:46;;;;;;;11.23;4.32;;;14.90;99.10;;;;;;5043319;28;20239;-82
2021/08/10 03:47:16;;;;;;;8.15;4.57;;;14.90;99.10;;;;;;5042316;28;20181;-81
2021/08/10 03:49:44;;;;;;;8.65;4.47;;;14.90;99.10;;;;;;5042554;28;20173;-81
2021/08/10 03:52:12;;;;;;;9.77;4.00;;;14.90;99.10;;;;;;5042002;28;20418;-81
2021/08/10 03:54:38;;;;;;;9.13;4.68;;;14.90;99.10;;;;;;5041611;28;20193;-81
2021/08/10 03:57:07;;;;;;;8.27;4.22;;;14.90;99.10;;;;;;5040905;28;20166;-80
2021/08/10 03:59:34;;;;;;;9.18;3.88;;;14.90;99.10;;;;;;5041129;28;20169;-81
2021/08/10 04:02:00;;;;;;;7.78;4.30;;;14.90;99.10;;;;;;5042219;28;20227;-81
2021/08/10 04:04:27;;;;;;;7.85;3.65;;;15.00;99.10;;;;;;5041452;28;20189;-81
2021/08/10 04:06:54;;;;;;;8.93;3.95;;;15.00;99.10;;;;;;5041371;28;20173;-81
2021/08/10 04:09:21;;;;;;;13.07;4.38;;;14.90;99.10;;;;;;5042188;28;20223;-82
2021/08/10 04:11:48;;;;;;;9.40;3.55;;;14.90;99.10;;;;;;5042375;28;20193;-82
2021/08/10 04:14:14;;;;;;;9.10;4.10;;;14.90;99.10;;;;;;5041671;28;20186;-81
2021/08/10 04:17:05;;;;;;;11.80;4.43;;;14.80;99.10;;;;;;5041357;28;20181;-80
2021/08/10 04:19:34;;;;;;;6.32;3.55;;;14.80;99.10;;;;;;5036081;28;20235;-81
2021/08/10 04:22:00;;;;;;;7.05;4.15;;;14.80;99.10;;;;;;5040678;28;20180;-81
2021/08/10 04:24:26;;;;;;;9.25;4.50;;;14.80;99.10;;;;;;5042319;28;20196;-82
2021/08/10 04:26:52;;;;;;;7.23;4.23;;;14.80;99.10;;;;;;5059278;28;20557;-81
2021/08/10 04:29:19;;;;;;;7.13;3.88;;;14.80;99.10;;;;;;5041025;28;20198;-80
2021/08/10 04:31:45;;;;;;;15.02;4.82;;;14.80;99.10;;;;;;5041501;28;20205;-81
2021/08/10 04:34:11;;;;;;;7.93;3.95;;;14.80;99.10;;;;;;5040541;28;20189;-82
2021/08/10 04:36:37;;;;;;;12.75;4.72;;;14.90;99.10;;;;;;5040878;28;20170;-81
2021/08/10 04:39:04;;;;;;;7.45;4.32;;;15.00;99.10;;;;;;5040965;28;20187;-82
2021/08/10 04:41:30;;;;;;;8.75;4.30;;;15.00;99.10;;;;;;5041505;28;20235;-81
2021/08/10 04:43:56;;;;;;;7.97;4.10;;;15.00;99.10;;;;;;5041784;28;20215;-81
2021/08/10 04:46:27;;;;;;;8.00;4.40;;;15.00;99.10;;;;;;5041787;28;20177;-81
2021/08/10 04:48:54;;;;;;;6.47;3.65;;;15.10;99.10;;;;;;5041216;28;20173;-81
2021/08/10 04:51:20;;;;;;;6.63;4.00;;;15.20;99.10;;;;;;5041027;28;20184;-81
2021/08/10 04:53:46;;;;;;;5.97;3.65;;;15.30;99.10;;;;;;5041075;28;20193;-81
2021/08/10 04:56:12;;;;;;;7.90;4.03;;;15.30;99.10;;;;;;5040199;28;20169;-81
2021/08/10 04:58:38;;;;;;;6.80;4.27;;;15.30;99.10;;;;;;5040430;28;20256;-81
2021/08/10 05:01:05;;;;;;;10.55;4.10;;;15.30;99.10;;;;;;5026166;28;20456;-82
2021/08/10 05:03:31;;;;;;;6.45;3.97;;;15.40;99.00;;;;;;5021378;28;20265;-81
2021/08/10 05:05:58;;;;;;;9.82;4.50;;;15.40;98.90;;;;;;5020858;28;20178;-82
2021/08/10 05:08:24;;;;;;;5.50;4.40;;;15.50;98.60;;;;;;5020864;28;20177;-81
2021/08/10 05:10:50;;;;;;;11.35;4.55;;;15.60;98.30;;;;;;5020672;28;20177;-81
2021/08/10 05:13:16;;;;;;;6.80;3.97;;;15.60;98.10;;;;;;5020487;28;20210;-81
2021/08/10 05:15:41;;;;;;;8.37;4.27;;;15.70;98.00;;;;;;5020319;28;20423;-81
2021/08/10 05:18:07;;;;;;;8.20;4.23;;;15.70;97.70;;;;;;5021739;28;20416;-81
2021/08/10 05:20:33;;;;;;;11.70;4.87;;;15.80;97.70;;;;;;5021075;28;20169;-81
2021/08/10 05:23:00;;;;;;;7.55;4.50;;;15.70;97.60;;;;;;5020816;28;20956;-81
2021/08/10 05:25:25;;;;;;;9.15;3.95;;;15.70;97.70;;;;;;5020595;28;20173;-82
2021/08/10 05:27:51;;;;;;;7.53;3.80;;;15.70;97.80;;;;;;5021336;28;20219;-81
2021/08/10 05:30:17;;;;;;;9.03;4.20;;;15.70;98.00;;;;;;5020716;28;20496;-82
2021/08/10 05:32:43;;;;;;;12.30;4.10;;;15.80;97.70;;;;;;5020903;28;20550;-82
2021/08/10 05:35:09;;;;;;;7.53;4.40;;;15.80;97.30;;;;;;5021397;28;20717;-82
2021/08/10 05:37:34;;;;;;;9.65;5.03;;;15.80;97.50;;;;;;5020767;28;20415;-82
2021/08/10 05:40:01;;;;;;;14.53;4.53;;;15.90;97.40;;;;;;5020686;28;20197;-82
2021/08/10 05:42:27;;;;;;;8.98;5.10;;;15.90;97.00;;;;;;5021307;28;20420;-82
2021/08/10 05:44:53;;;;;;;9.20;4.20;;;15.90;97.50;;;;;;5020461;28;20278;-81
2021/08/10 05:47:19;;;;;;;9.55;4.63;;;16.10;97.30;;;;;;5020307;28;20912;-82
2021/08/10 05:49:45;;;;;;;11.20;4.30;;;16.20;97.00;;;;;;5020415;28;20269;-81
2021/08/10 05:52:11;;;;;;;5.27;3.50;;;16.30;96.50;;;;;;5019928;28;20547;-82
2021/08/10 05:54:37;;;;;;;17.83;4.63;;;16.30;96.40;;;;;;5019738;28;20186;-82
2021/08/10 05:57:03;;;;;;;19.00;4.57;;;16.20;96.20;;;;;;5019762;28;20459;-81
2021/08/10 05:59:29;;;;;;;8.63;4.05;;;16.20;96.20;;;;;;5020229;28;20176;-81
2021/08/10 06:01:57;;;;;;;14.48;4.72;;;16.30;96.40;;;;;;5108886;23;20318;-78
2021/08/10 06:04:23;;;;;;;11.82;5.05;;;16.30;96.50;;;;;;5043572;28;20247;-78
2021/08/10 06:06:49;;;;;;;11.83;5.17;;;16.40;96.30;;;;;;5038214;28;20173;-78
2021/08/10 06:09:14;;;;;;;11.27;4.77;;;16.40;96.20;;;;;;5039814;28;20519;-79
2021/08/10 06:11:40;;;;;;;10.10;4.97;;;16.40;96.00;;;;;;5039843;28;20292;-79
2021/08/10 06:14:06;;;;;;;6.68;4.00;;;16.40;95.90;;;;;;5058705;28;20566;-80
2021/08/10 06:16:33;;;;;;;9.27;4.43;;;16.40;96.40;;;;;;5039953;28;20165;-79
2021/08/10 06:19:00;;;;;;;11.57;5.13;;;16.50;96.00;;;;;;5040652;28;20205;-78
2021/08/10 06:21:26;;;;;;;8.38;4.13;;;16.60;96.20;;;;;;5036822;28;20192;-77
2021/08/10 06:23:52;;;;;;;12.15;4.63;;;16.60;95.40;;;;;;5034991;28;20189;-77
2021/08/10 06:26:18;;;;;;;11.35;4.68;;;16.60;95.30;;;;;;5052885;28;20637;-77
2021/08/10 06:28:44;;;;;;;9.57;4.50;;;16.60;95.60;;;;;;5034884;28;20203;-77
2021/08/10 06:31:11;;;;;;;14.73;4.70;;;16.70;95.70;;;;;;5034775;28;20414;-77
2021/08/10 06:33:38;;;;;;;7.25;3.83;;;16.70;95.90;;;;;;5034687;28;20424;-77
2021/08/10 06:36:04;;;;;;;14.23;5.40;;;16.80;95.30;;;;;;5036199;28;20572;-78
2021/08/10 06:38:30;;;;;;;10.20;4.95;;;16.80;95.00;;;;;;5037353;28;20255;-79
2021/08/10 06:40:55;;;;;;;12.75;5.05;;;16.90;94.50;;;;;;5036676;28;20200;-79
2021/08/10 06:43:21;;;;;;;9.63;4.30;;;16.90;94.40;;;;;;5036911;28;20196;-78
2021/08/10 06:45:47;;;;;;;13.97;4.13;;;16.90;94.10;;;;;;5036984;28;20176;-78
2021/08/10 06:48:13;;;;;;;9.63;4.60;;;17.00;94.40;;;;;;5036983;28;20797;-79
2021/08/10 06:50:39;;;;;;;10.20;4.37;;;17.10;94.30;;;;;;5037019;28;20177;-77
2021/08/10 06:53:06;;;;;;;8.27;4.45;;;17.10;94.00;;;;;;5037434;28;20850;-77
2021/08/10 06:55:32;;;;;;;12.88;4.95;;;17.30;94.10;;;;;;5037275;28;20172;-77
2021/08/10 06:57:59;;;;;;;5.50;3.80;;;17.40;93.70;;;;;;5037403;28;20169;-77
2021/08/10 07:00:25;;;;;;;11.35;4.95;;;17.70;93.20;;;;;;5036790;28;20420;-77
2021/08/10 07:02:54;;;;;;;12.32;4.75;;;17.90;92.60;;;;;;5037522;28;20193;-77
2021/08/10 07:05:20;;;;;;;12.35;4.07;;;18.10;91.70;;;;;;5037990;28;20272;-78
2021/08/10 07:07:45;;;;;;;16.97;5.30;;;18.10;90.90;;;;;;5037166;28;20208;-77
2021/08/10 07:10:11;;;;;;;10.43;4.70;;;18.20;91.20;;;;;;5037143;28;20408;-77
2021/08/10 07:12:37;;;;;;;10.02;4.90;;;18.30;91.40;;;;;;5036214;28;20574;-77
2021/08/10 07:15:04;;;;;;;12.40;5.60;;;18.30;90.90;;;;;;5036012;28;20174;-78
2021/08/10 07:17:29;;;;;;;15.63;4.88;;;18.30;91.10;;;;;;5054282;28;20165;-78
2021/08/10 07:19:55;;;;;;;9.87;5.27;;;18.30;91.20;;;;;;5040963;28;20180;-78
2021/08/10 07:22:21;;;;;;;9.90;5.83;;;18.50;91.30;;;;;;5042102;28;20184;-78
2021/08/10 07:24:46;;;;;;;13.47;5.03;;;18.80;90.10;;;;;;5041908;28;20205;-77
2021/08/10 07:27:12;;;;;;;9.97;4.70;;;19.00;89.10;;;;;;5040860;28;20271;-78
2021/08/10 07:29:38;;;;;;;9.47;4.83;;;19.20;88.30;;;;;;5040922;28;20528;-77
2021/08/10 07:32:04;;;;;;;13.03;4.57;;;19.40;88.80;;;;;;5040471;28;20266;-78
2021/08/10 07:34:30;;;;;;;14.68;5.05;;;19.60;87.60;;;;;;5039490;28;20947;-76
2021/08/10 07:36:56;;;;;;;8.00;4.33;;;19.60;86.60;;;;;;5037892;28;20180;-76
2021/08/10 07:39:22;;;;;;;11.77;4.70;;;19.70;87.10;;;;;;5037907;28;20165;-76
2021/08/10 07:41:47;;;;;;;17.53;5.20;;;19.80;87.00;;;;;;5038457;28;20173;-77
2021/08/10 07:44:13;;;;;;;8.87;4.30;;;19.90;86.60;;;;;;5056989;28;20463;-77
2021/08/10 07:46:39;;;;;;;18.50;5.00;;;19.90;85.50;;;;;;5037709;28;20560;-77
2021/08/10 07:49:05;;;;;;;15.93;5.83;;;19.90;86.20;;;;;;5039248;28;20418;-78
2021/08/10 07:51:31;;;;;;;10.97;4.93;;;19.80;86.30;;;;;;5041243;28;20827;-77
2021/08/10 07:53:56;;;;;;;11.50;4.50;;;19.80;86.70;;;;;;5038914;28;20501;-78
2021/08/10 07:56:22;;;;;;;7.13;4.53;;;19.90;86.20;;;;;;5039169;28;20411;-78
2021/08/10 07:58:48;;;;;;;8.23;4.53;;;20.00;86.30;;;;;;5039527;28;20169;-78
2021/08/10 08:01:14;;;;;;;9.43;5.17;;;20.10;86.90;;;;;;5057504;28;20246;-77
2021/08/10 08:03:40;;;;;;;9.07;4.87;;;20.30;85.80;;;;;;5039072;28;20428;-77
2021/08/10 08:06:05;;;;;;;9.93;4.10;;;20.40;84.90;;;;;;5037840;28;20165;-77
2021/08/10 08:08:31;;;;;;;6.60;4.33;;;20.40;84.50;;;;;;5039794;28;20177;-77
2021/08/10 08:10:58;;;;;;;8.17;4.10;;;20.50;85.50;;;;;;5040151;28;20404;-77
2021/08/10 08:13:26;;;;;;;7.50;4.65;;;20.70;85.10;;;;;;5040276;28;20467;-78
2021/08/10 08:15:55;;;;;;;12.40;4.55;;;20.80;84.10;;;;;;5040860;28;20177;-78
2021/08/10 08:18:22;;;;;;;16.05;5.30;;;20.90;84.80;;;;;;5040051;28;20176;-78
2021/08/10 08:20:48;;;;;;;12.63;3.88;;;21.00;83.70;;;;;;5040022;28;20173;-77
2021/08/10 08:23:16;;;;;;;9.65;4.60;;;21.10;84.60;;;;;;5040452;28;20200;-77
2021/08/10 08:25:42;;;;;;;14.85;3.65;;;21.20;84.50;;;;;;5040571;28;20215;-77
2021/08/10 08:28:12;;;;;;;10.35;4.10;;;21.30;83.80;;;;;;5041063;28;20177;-77
2021/08/10 08:30:39;;;;;;;9.10;3.40;;;21.50;83.90;;;;;;5041608;28;20195;-78
2021/08/10 08:33:09;;;;;;;6.55;3.85;;;21.70;83.00;;;;;;5041285;28;20227;-78
2021/08/10 08:35:37;;;;;;;8.60;4.25;;;22.00;81.00;;;;;;5042970;28;20584;-79
2021/08/10 08:38:08;;;;;;;10.52;3.50;;;22.10;80.50;;;;;;5046102;28;20165;-80
2021/08/10 08:40:37;;;;;;;5.30;3.33;;;22.30;79.80;;;;;;5041129;28;20252;-79
2021/08/10 08:43:04;;;;;;;8.45;4.47;;;22.40;80.30;;;;;;5044782;28;20564;-78
2021/08/10 08:45:31;;;;;;;6.45;3.70;;;22.70;78.30;;;;;;5043892;28;20174;-80
2021/08/10 08:48:01;;;;;;;7.97;3.38;;;22.90;77.40;;;;;;5038264;28;20173;-77
2021/08/10 08:50:30;;;;;;;6.35;3.40;;;23.10;77.80;;;;;;5036737;28;20658;-77
2021/08/10 08:52:57;;;;;;;7.38;3.80;;;23.30;77.00;;;;;;5036510;28;20284;-77
2021/08/10 08:55:26;;;;;;;7.80;3.28;;;23.30;74.50;;;;;;5036672;28;20169;-77
2021/08/10 08:57:59;;;;;;;4.93;3.00;;;23.50;74.10;;;;;;5036564;28;20645;-78
2021/08/10 09:00:26;;;;;;;5.47;3.03;;;;;;;;;;5036845;28;20158;-78
2021/08/10 09:02:52;;;;;;;6.80;3.88;;;23.80;70.60;;;;;;5053229;28;20185;-78
2021/08/10 09:05:18;;;;;;;7.07;3.10;;;23.70;69.80;;;;;;5036678;28;20169;-78
2021/08/10 09:07:43;;;;;;;8.55;3.35;;;23.80;71.60;;;;;;5036634;28;20207;-78
2021/08/10 09:10:12;;;;;;;7.00;3.60;;;24.00;72.00;;;;;;5036511;28;20208;-78
2021/08/10 09:12:57;;;;;;;12.15;3.22;;;24.10;71.20;;;;;;5036259;28;20213;-78
2021/08/10 09:15:43;;;;;;;12.40;3.00;;;24.20;68.50;;;;;;5036350;28;20176;-78
2021/08/10 09:18:09;;;;;;;10.27;3.50;;;24.40;69.40;;;;;;5053373;28;20169;-78
2021/08/10 09:20:36;;;;;;;7.90;3.90;;;24.40;68.90;;;;;;5037010;28;20264;-78
2021/08/10 09:23:02;;;;;;;7.65;2.95;;;24.30;68.70;;;;;;5039351;28;20229;-78
2021/08/10 09:25:29;;;;;;;7.68;3.00;;;24.40;70.50;;;;;;5036041;28;20173;-78
2021/08/10 09:28:07;;;;;;;5.70;4.00;;;24.50;67.80;;;;;;5036113;28;20664;-77
2021/08/10 09:30:34;;;;;;;8.50;3.00;;;24.60;69.10;;;;;;5036119;28;20180;-78
2021/08/10 09:33:05;;;;;;;6.90;3.30;;;24.50;68.50;;;;;;5034604;28;20208;-78
2021/08/10 09:35:35;;;;;;;4.07;2.30;;;24.50;69.50;;;;;;5035266;28;20583;-78
2021/08/10 09:38:02;;;;;;;4.30;3.08;;;24.50;70.50;;;;;;5035669;28;20637;-78
2021/08/10 09:40:34;;;;;;;4.95;2.50;;;24.60;67.00;;;;;;5034932;28;20173;-77
2021/08/10 09:43:19;;;;;;;5.03;2.75;;;24.50;68.10;;;;;;5035241;28;20197;-78
2021/08/10 09:45:45;;;;;;;6.50;2.50;;;24.60;69.10;;;;;;5035222;28;20173;-78
2021/08/10 09:48:15;;;;;;;8.17;3.23;;;24.80;69.80;;;;;;5035217;28;20181;-77
2021/08/10 09:50:41;;;;;;;4.00;2.55;;;25.00;65.30;;;;;;5035860;28;20950;-80
2021/08/10 09:53:34;;;;;;;4.23;2.20;;;25.10;65.50;;;;;;5036958;28;20201;-79
2021/08/10 09:56:00;;;;;;;13.13;2.80;;;25.20;68.10;;;;;;5033194;28;20416;-79
2021/08/10 09:58:26;;;;;;;6.43;2.55;;;25.30;66.70;;;;;;5037155;28;20653;-79
2021/08/10 10:00:53;;;;;;;8.93;2.85;;;25.40;64.40;;;;;;5036685;28;20207;-79
2021/08/10 10:03:24;;;;;;;6.35;2.75;;;25.50;66.20;;;;;;5035810;28;20291;-80
2021/08/10 10:05:51;;;;;;;11.85;2.95;;;25.70;63.90;;;;;;5036033;28;20165;-80
2021/08/10 10:08:22;;;;;;;6.10;3.20;;;25.80;63.90;;;;;;5036461;28;20633;-78
2021/08/10 10:10:49;;;;;;;8.68;2.63;;;25.90;61.70;;;;;;5035192;28;20177;-79
2021/08/10 10:13:19;;;;;;;6.18;3.05;;;25.90;61.70;;;;;;5035355;28;20212;-79
2021/08/10 10:15:46;;;;;;;6.38;3.40;;;26.00;63.10;;;;;;5036420;28;20205;-79
2021/08/10 10:18:13;;;;;;;6.82;3.10;;;25.90;64.40;;;;;;5046934;28;20173;-80
2021/08/10 10:20:45;;;;;;;10.52;2.65;;;25.90;62.70;;;;;;5045745;28;20176;-79
2021/08/10 10:23:39;;;;;;;4.32;3.20;;;26.10;62.80;;;;;;5043687;28;20580;-82
2021/08/10 10:26:09;;;;;;;8.50;3.28;;;26.20;61.20;;;;;;5043290;28;20192;-80
2021/08/10 10:28:35;;;;;;;6.07;3.35;;;26.40;60.90;;;;;;5047206;28;20209;-81
2021/08/10 10:31:01;;;;;;;11.48;2.63;;;26.50;59.30;;;;;;5042346;28;20557;-80
2021/08/10 10:33:28;;;;;;;6.30;2.42;;;26.40;61.40;;;;;;5044537;28;20205;-82
2021/08/10 10:35:55;;;;;;;20.88;3.17;;;26.50;63.40;;;;;;5045013;28;20222;-83
2021/08/10 10:38:24;;;;;;;6.63;3.05;;;26.60;59.40;;;;;;5044195;28;20259;-82
2021/08/10 10:40:54;;;;;;;10.10;3.17;;;26.70;59.20;;;;;;5043206;28;20169;-79
2021/08/10 10:43:24;;;;;;;3.95;2.60;;;26.70;58.30;;;;;;5041467;28;20200;-84
2021/08/10 10:45:53;;;;;;;6.97;2.88;;;26.60;57.00;;;;;;5043290;28;20227;-83
2021/08/10 10:48:25;;;;;;;3.78;2.40;;;26.40;56.00;;;;;;5042707;28;20184;-83
2021/08/10 10:51:07;;;;;;;6.63;2.05;;;26.20;54.60;;;;;;5044468;28;20647;-83
2021/08/10 10:53:35;;;;;;;4.47;2.00;;;26.00;56.70;;;;;;5041843;28;20223;-79
2021/08/10 10:56:28;;;;;;;5.57;2.15;;;25.90;57.20;;;;;;5041977;28;20177;-80
2021/08/10 10:59:14;;;;;;;7.18;2.10;;;25.90;58.10;;;;;;5060863;28;20183;-81
2021/08/10 11:01:40;;;;;;;2.58;1.75;;;26.10;57.40;;;;;;5043877;28;20181;-79
2021/08/10 11:04:10;;;;;;;4.33;2.30;;;26.30;58.10;;;;;;5044357;28;20219;-81
2021/08/10 11:06:45;;;;;;;2.67;1.85;;;26.60;56.20;;;;;;5042579;28;20411;-80
2021/08/10 11:09:36;;;;;;;3.15;1.98;;;26.70;56.30;;;;;;5042309;28;20533;-81
2021/08/10 11:12:04;;;;;;;3.90;2.50;;;26.80;55.30;;;;;;5061155;28;20196;-82
2021/08/10 11:14:39;;;;;;;7.75;2.83;;;26.80;55.30;;;;;;5043781;28;20199;-82
2021/08/10 11:17:08;;;;;;;4.00;2.30;;;26.70;54.50;;;;;;5042782;28;20177;-80
2021/08/10 11:19:36;;;;;;;3.72;1.98;;;26.50;55.10;;;;;;5042935;28;20168;-80
2021/08/10 11:22:17;;;;;;;4.90;2.55;;;26.30;56.80;;;;;;5043108;28;20248;-80
2021/08/10 11:24:52;;;;;;;4.68;2.70;;;26.20;56.30;;;;;;5042638;28;20197;-82
2021/08/10 11:27:46;;;;;;;7.47;2.42;;;26.10;56.00;;;;;;5043085;28;20191;-82
2021/08/10 11:30:24;;;;;;;4.25;2.35;;;25.90;57.20;;;;;;5058251;28;20780;-79
2021/08/10 11:32:51;;;;;;;8.05;2.78;;;25.80;56.80;;;;;;5057495;28;20223;-78
2021/08/10 11:35:34;;;;;;;5.05;2.45;;;25.90;57.70;;;;;;5042440;28;20177;-80
2021/08/10 11:38:14;;;;;;;5.50;2.58;;;26.10;58.30;;;;;;5043044;28;20173;-80
2021/08/10 11:40:59;;;;;;;7.13;2.22;;;26.20;58.30;;;;;;5042594;28;20168;-81
2021/08/10 11:43:36;;;;;;;4.13;2.60;;;26.30;58.50;;;;;;5043394;28;20204;-81
2021/08/10 11:46:04;;;;;;;4.80;2.20;;;26.50;58.10;;;;;;5042958;28;20256;-81
2021/08/10 11:48:51;;;;;;;5.85;2.10;;;26.70;57.00;;;;;;5045337;28;20179;-81
2021/08/10 11:51:21;;;;;;;7.82;2.42;;;26.90;56.80;;;;;;5045682;28;20165;-82
2021/08/10 11:53:52;;;;;;;3.55;2.30;;;27.20;55.70;;;;;;5061603;28;20227;-81
2021/08/10 11:56:22;;;;;;;8.68;2.33;;;27.30;56.70;;;;;;5045858;28;20212;-82
2021/08/10 11:58:47;;;;;;;8.57;2.17;;;27.30;54.30;;;;;;5043924;28;20165;-82
2021/08/10 12:01:14;;;;;;;5.27;2.27;;;27.30;54.20;;;;;;5044758;28;20173;-82
2021/08/10 12:03:40;;;;;;;6.68;2.63;;;27.50;55.30;;;;;;5117015;22;20225;-79
2021/08/10 12:06:06;;;;;;;5.20;2.70;;;27.80;55.00;;;;;;5039225;28;20260;-78
2021/08/10 12:08:32;;;;;;;6.60;2.30;;;27.90;53.40;;;;;;5057288;28;20473;-77
2021/08/10 12:10:58;;;;;;;7.93;3.28;;;27.50;53.70;;;;;;5039131;28;20411;-78
2021/08/10 12:13:26;;;;;;;6.57;2.40;;;27.30;53.80;;;;;;5039574;28;20723;-78
2021/08/10 12:15:52;;;;;;;5.25;2.60;;;27.30;54.20;;;;;;5039514;28;20404;-78
2021/08/10 12:18:20;;;;;;;12.50;2.97;;;27.30;54.50;;;;;;5039677;28;20221;-78
2021/08/10 12:20:58;;;;;;;5.82;2.38;;;27.30;53.80;;;;;;5039200;28;20169;-78
2021/08/10 12:23:26;;;;;;;8.07;2.33;;;27.30;53.70;;;;;;5039832;28;20264;-79
2021/08/10 12:25:52;;;;;;;3.72;2.05;;;27.20;55.40;;;;;;5039159;28;20209;-78
2021/08/10 12:28:18;;;;;;;4.50;2.60;;;27.30;54.70;;;;;;5039676;28;20704;-78
2021/08/10 12:30:44;;;;;;;5.33;2.50;;;27.50;55.40;;;;;;5040950;28;20169;-78
2021/08/10 12:33:22;;;;;;;6.37;3.33;;;27.40;55.10;;;;;;5039850;28;20588;-78
2021/08/10 12:36:03;;;;;;;10.63;2.95;;;27.30;55.70;;;;;;5040264;28;20411;-78
2021/08/10 12:38:30;;;;;;;12.18;2.70;;;27.10;56.00;;;;;;5039689;28;20171;-78
2021/08/10 12:40:57;;;;;;;5.32;2.97;;;26.80;56.40;;;;;;5039897;28;20226;-78
2021/08/10 12:43:23;;;;;;;6.38;3.47;;;26.80;58.80;;;;;;5039767;28;20623;-78
2021/08/10 12:45:49;;;;;;;5.00;2.42;;;26.80;58.00;;;;;;5039867;28;20177;-78
2021/08/10 12:48:35;;;;;;;4.60;3.10;;;27.00;57.50;;;;;;5040029;28;20180;-78
2021/08/10 12:51:04;;;;;;;3.80;2.38;;;27.10;56.60;;;;;;5039681;28;20943;-78
2021/08/10 12:53:33;;;;;;;4.13;2.65;;;27.20;58.90;;;;;;5039845;28;20229;-78